Airfield :
LOGIN :

Register | Disclaimer

   EN    FR    IT 

 










Legend :    VFR   Marginal VFR   IFR   Intensive IFR   Very Intensive IFR
Visi :
Ceiling :
>= 8 km
>= 3000ft
5 to 8 km
1000 to 3000 ft
1500m to 5 km
500 to 1000 ft
800 to 1500m
200 to 500 ft
< 800m
< 200 ft
Symbols :   Thunderstorms  Fog  Heavy snow  Heavy precipitations  Wind > 20 kt
SIGMETs :     Misc.  Thunderstorms  Icing  Turbulence  Mountain Waves  Volcanic Ashes







- Airport Elevation : -11 ft
- IATA code : AMS


EHAM - Amsterdam Schiphol

CURRENT METAR :
  • 251455Z 33009KT 290V010 9999 FEW027 20/13 Q1025 NOSIG

EXPIRED METARs :
  • 251425Z 31011KT 280V360 9999 FEW028 20/13 Q1025 NOSIG
  • 251355Z 32011KT 270V360 9999 FEW028 20/13 Q1025 NOSIG
  • 251325Z 31010KT 250V010 9999 FEW025 20/12 Q1025 NOSIG
  • 251255Z 33007KT 280V360 9999 FEW022 20/12 Q1025 NOSIG
  • 251225Z 35007KT 300V040 9999 FEW019 19/12 Q1025 NOSIG

TAF TAF EHAM
Valid from the 25 at 12:00 until the 26 at 18:00 UTC


251057Z 2512/2618 33012KT 9999 SCT025
BECMG 2518/2521 35005KT
PROB30
TEMPO 2600/2605 6000 MIFG
BECMG 2606/2609 35012KT
No reported NOTAMs for that airfield.



MET'MAP, your aeronautical weather chart ! - Copyright ORBIFLY December 2007 - Disclaimer

ORBIFLY MET'MAP TEAM :

Programming & Development : Alexandra Zaïnal
Concept & Development : Baudouin d'Aumeries
Co-Development & Prog : Marc-Olivier Méhu
Technical & hardware support : Manuel Goepfert

Contact : metmap@orbifly.com




SOURCES & CREDITS :

   NOAA